Time,TemperatureF,DewpointF,PressureIn,WindDirection,WindDirectionDegrees,WindSpeedMPH,WindSpeedGustMPH,Humidity,HourlyPrecipIn,Conditions,Clouds,dailyrainin,SoftwareType,DateUTC
2013-01-30 00:02:00,36.1,33.5,30.29,NW,323,0.0,0.0,90,0.00,,,0.00,WeatherCatV1.11B39,2013-01-30 08:02:00,
2013-01-30 00:07:00,36.0,33.4,30.29,NW,323,0.0,0.0,90,0.00,,,0.00,WeatherCatV1.11B39,2013-01-30 08:07:00,
2013-01-30 00:12:00,35.7,33.1,30.29,NW,323,0.0,0.0,90,0.00,,,0.00,WeatherCatV1.11B39,2013-01-30 08:12:00,
2013-01-30 00:17:00,35.5,32.9,30.29,NW,323,0.0,0.0,90,0.00,,,0.00,WeatherCatV1.11B39,2013-01-30 08:17:00,
2013-01-30 00:23:00,35.3,32.7,30.29,NW,323,0.0,0.0,90,0.00,,,0.00,WeatherCatV1.11B39,2013-01-30 08:23:00,
2013-01-30 00:28:00,35.2,32.6,30.29,NW,323,0.0,0.0,90,0.00,,,0.00,WeatherCatV1.11B39,2013-01-30 08:28:00,
2013-01-30 00:33:00,35.1,32.5,30.29,NW,323,0.0,0.0,90,0.00,,,0.00,WeatherCatV1.11B39,2013-01-30 08:33:00,
2013-01-30 00:38:00,35.0,32.6,30.29,NW,323,0.0,0.0,91,0.00,,,0.00,WeatherCatV1.11B39,2013-01-30 08:38:00,
2013-01-30 00:43:00,34.8,32.4,30.29,NW,323,0.0,0.0,91,0.00,,,0.00,WeatherCatV1.11B39,2013-01-30 08:43:00,
2013-01-30 00:48:00,34.7,32.3,30.30,NW,323,0.0,0.0,91,0.00,,,0.00,WeatherCatV1.11B39,2013-01-30 08:48:00,
2013-01-30 00:53:00,34.7,32.3,30.29,NW,323,0.0,0.0,91,0.00,,,0.00,WeatherCatV1.11B39,2013-01-30 08:53:00,
2013-01-30 00:58:00,34.6,32.5,30.30,NW,323,0.0,0.0,92,0.00,,,0.00,WeatherCatV1.11B39,2013-01-30 08:58:00,
2013-01-30 01:03:00,34.5,32.4,30.30,NW,323,0.0,0.0,92,0.00,,,0.00,WeatherCatV1.11B39,2013-01-30 09:03:00,
2013-01-30 01:08:00,34.5,32.4,30.30,NW,323,0.0,0.0,92,0.00,,,0.00,WeatherCatV1.11B39,2013-01-30 09:08:00,
2013-01-30 01:13:00,34.4,32.3,30.30,NW,323,0.0,0.0,92,0.00,,,0.00,WeatherCatV1.11B39,2013-01-30 09:13:00,
2013-01-30 01:18:00,34.4,32.3,30.30,NW,323,0.0,0.0,92,0.00,,,0.00,WeatherCatV1.11B39,2013-01-30 09:18:00,
2013-01-30 01:23:00,34.3,32.5,30.30,NW,323,0.0,0.0,93,0.00,,,0.00,WeatherCatV1.11B39,2013-01-30 09:23:00,
2013-01-30 01:28:00,34.2,32.1,30.30,NW,323,0.0,0.0,92,0.00,,,0.00,WeatherCatV1.11B39,2013-01-30 09:28:00,
2013-01-30 01:33:00,34.1,32.0,30.30,NW,323,0.0,0.0,92,0.00,,,0.00,WeatherCatV1.11B39,2013-01-30 09:33:00,
2013-01-30 01:38:00,34.0,31.9,30.30,NW,323,0.0,0.0,92,0.00,,,0.00,WeatherCatV1.11B39,2013-01-30 09:38:00,
2013-01-30 01:43:00,33.9,31.8,30.30,NW,323,0.0,0.0,92,0.00,,,0.00,WeatherCatV1.11B39,2013-01-30 09:43:00,
2013-01-30 01:48:00,33.9,32.1,30.30,NW,323,0.0,0.0,93,0.00,,,0.00,WeatherCatV1.11B39,2013-01-30 09:48:00,
2013-01-30 01:53:00,33.9,32.1,30.30,NW,323,0.0,0.0,93,0.00,,,0.00,WeatherCatV1.11B39,2013-01-30 09:53:00,
2013-01-30 01:58:00,33.8,32.0,30.30,NW,323,0.0,0.0,93,0.00,,,0.00,WeatherCatV1.11B39,2013-01-30 09:58:00,
2013-01-30 02:03:00,33.8,32.0,30.30,NW,323,0.0,0.0,93,0.00,,,0.00,WeatherCatV1.11B39,2013-01-30 10:03:00,
2013-01-30 02:08:00,33.7,31.9,30.30,NW,323,0.0,0.0,93,0.00,,,0.00,WeatherCatV1.11B39,2013-01-30 10:08:00,
2013-01-30 02:13:00,33.5,31.7,30.30,NW,323,0.0,0.0,93,0.00,,,0.00,WeatherCatV1.11B39,2013-01-30 10:13:00,
2013-01-30 02:18:00,33.5,31.7,30.30,NW,323,0.0,0.0,93,0.00,,,0.00,WeatherCatV1.11B39,2013-01-30 10:18:00,
2013-01-30 02:23:00,33.4,31.6,30.30,NW,323,0.0,0.0,93,0.00,,,0.00,WeatherCatV1.11B39,2013-01-30 10:23:00,
2013-01-30 02:28:00,33.2,31.4,30.30,NW,323,0.0,0.0,93,0.00,,,0.00,WeatherCatV1.11B39,2013-01-30 10:28:00,
2013-01-30 02:33:00,33.1,31.3,30.30,NW,323,0.0,0.0,93,0.00,,,0.00,WeatherCatV1.11B39,2013-01-30 10:33:00,
2013-01-30 02:38:00,33.0,31.2,30.30,NW,323,0.0,0.0,93,0.00,,,0.00,WeatherCatV1.11B39,2013-01-30 10:38:00,
2013-01-30 02:43:00,32.9,31.1,30.30,NW,323,0.0,0.0,93,0.00,,,0.00,WeatherCatV1.11B39,2013-01-30 10:43:00,
2013-01-30 02:48:00,32.7,30.9,30.30,NW,323,0.0,0.0,93,0.00,,,0.00,WeatherCatV1.11B39,2013-01-30 10:48:00,
2013-01-30 02:53:00,32.6,30.8,30.30,NW,323,0.0,0.0,93,0.00,,,0.00,WeatherCatV1.11B39,2013-01-30 10:53:00,
2013-01-30 02:58:00,32.5,31.0,30.29,NW,323,0.0,0.0,94,0.00,,,0.00,WeatherCatV1.11B39,2013-01-30 10:58:00,
2013-01-30 03:03:00,32.3,30.8,30.29,NW,323,0.0,0.0,94,0.00,,,0.00,WeatherCatV1.11B39,2013-01-30 11:03:00,
2013-01-30 03:08:00,32.3,30.8,30.29,NW,323,0.0,0.0,94,0.00,,,0.00,WeatherCatV1.11B39,2013-01-30 11:08:00,
2013-01-30 03:13:00,32.2,30.7,30.29,NW,323,0.0,0.0,94,0.00,,,0.00,WeatherCatV1.11B39,2013-01-30 11:13:00,
2013-01-30 03:18:00,32.1,30.6,30.29,NW,323,0.0,0.0,94,0.00,,,0.00,WeatherCatV1.11B39,2013-01-30 11:18:00,
2013-01-30 03:23:00,31.9,30.4,30.29,NW,323,0.0,0.0,94,0.00,,,0.00,WeatherCatV1.11B39,2013-01-30 11:23:00,
2013-01-30 03:28:00,31.8,30.3,30.29,NW,323,0.0,0.0,94,0.00,,,0.00,WeatherCatV1.11B39,2013-01-30 11:28:00,
2013-01-30 03:33:00,31.7,30.2,30.29,NW,323,0.0,0.0,94,0.00,,,0.00,WeatherCatV1.11B39,2013-01-30 11:33:00,
2013-01-30 03:38:00,31.6,30.1,30.29,NW,323,0.0,0.0,94,0.00,,,0.00,WeatherCatV1.11B39,2013-01-30 11:38:00,
2013-01-30 03:43:00,31.5,30.0,30.29,NW,323,0.0,0.0,94,0.00,,,0.00,WeatherCatV1.11B39,2013-01-30 11:43:00,
2013-01-30 03:48:00,31.4,29.9,30.29,NW,323,0.0,0.0,94,0.00,,,0.00,WeatherCatV1.11B39,2013-01-30 11:48:00,
2013-01-30 03:53:00,31.4,29.9,30.28,NW,323,0.0,0.0,94,0.00,,,0.00,WeatherCatV1.11B39,2013-01-30 11:53:00,
2013-01-30 03:58:00,31.4,29.9,30.28,NW,323,0.0,0.0,94,0.00,,,0.00,WeatherCatV1.11B39,2013-01-30 11:58:00,
2013-01-30 04:03:00,31.5,30.0,30.28,NW,323,0.0,0.0,94,0.00,,,0.00,WeatherCatV1.11B39,2013-01-30 12:03:00,
2013-01-30 04:08:00,31.6,30.3,30.28,NW,323,0.0,0.0,95,0.00,,,0.00,WeatherCatV1.11B39,2013-01-30 12:08:00,
2013-01-30 04:13:00,31.7,30.4,30.28,NW,323,0.0,0.0,95,0.00,,,0.00,WeatherCatV1.11B39,2013-01-30 12:13:00,
2013-01-30 04:18:00,31.7,30.4,30.28,NW,323,0.0,0.0,95,0.00,,,0.00,WeatherCatV1.11B39,2013-01-30 12:18:00,
2013-01-30 04:23:00,31.6,30.3,30.28,NW,323,0.0,0.0,95,0.00,,,0.00,WeatherCatV1.11B39,2013-01-30 12:23:00,
2013-01-30 04:28:00,31.5,30.2,30.28,NW,323,0.0,0.0,95,0.00,,,0.00,WeatherCatV1.11B39,2013-01-30 12:28:00,
2013-01-30 04:33:00,31.4,30.1,30.28,NW,323,0.0,0.0,95,0.00,,,0.00,WeatherCatV1.11B39,2013-01-30 12:33:00,
2013-01-30 04:38:00,31.3,30.0,30.28,NW,323,0.0,0.0,95,0.00,,,0.00,WeatherCatV1.11B39,2013-01-30 12:38:00,
2013-01-30 04:43:00,31.2,29.7,30.28,NW,323,0.0,0.0,94,0.00,,,0.00,WeatherCatV1.11B39,2013-01-30 12:43:00,
2013-01-30 04:48:00,31.2,29.9,30.28,NW,323,0.0,0.0,95,0.00,,,0.00,WeatherCatV1.11B39,2013-01-30 12:48:00,
2013-01-30 04:53:00,31.2,29.9,30.28,NW,323,0.0,0.0,95,0.00,,,0.00,WeatherCatV1.11B39,2013-01-30 12:53:00,
2013-01-30 04:58:00,31.1,29.8,30.28,NW,323,0.0,0.0,95,0.00,,,0.00,WeatherCatV1.11B39,2013-01-30 12:58:00,
2013-01-30 05:03:00,31.1,29.8,30.28,NW,323,0.0,0.0,95,0.00,,,0.00,WeatherCatV1.11B39,2013-01-30 13:03:00,
2013-01-30 05:08:00,31.1,29.8,30.28,NW,323,0.0,0.0,95,0.00,,,0.00,WeatherCatV1.11B39,2013-01-30 13:08:00,
2013-01-30 05:13:00,31.2,29.9,30.28,NW,323,0.0,0.0,95,0.00,,,0.00,WeatherCatV1.11B39,2013-01-30 13:13:00,
2013-01-30 05:18:00,31.2,29.9,30.28,NW,323,0.0,0.0,95,0.00,,,0.00,WeatherCatV1.11B39,2013-01-30 13:18:00,
2013-01-30 05:23:00,31.2,29.9,30.28,NW,323,0.0,0.0,95,0.00,,,0.00,WeatherCatV1.11B39,2013-01-30 13:23:00,
2013-01-30 05:28:00,31.1,29.8,30.28,NW,323,0.0,0.0,95,0.00,,,0.00,WeatherCatV1.11B39,2013-01-30 13:28:00,
2013-01-30 05:33:00,31.0,29.7,30.28,NW,323,0.0,0.0,95,0.00,,,0.00,WeatherCatV1.11B39,2013-01-30 13:33:00,
2013-01-30 05:38:00,31.0,29.7,30.28,NW,323,0.0,0.0,95,0.00,,,0.00,WeatherCatV1.11B39,2013-01-30 13:38:00,
2013-01-30 05:43:00,31.0,29.7,30.28,NW,323,1.0,1.0,95,0.00,,,0.00,WeatherCatV1.11B39,2013-01-30 13:43:00,
2013-01-30 05:48:00,30.9,29.6,30.28,NW,323,0.0,0.0,95,0.00,,,0.00,WeatherCatV1.11B39,2013-01-30 13:48:00,
2013-01-30 05:53:00,30.8,29.5,30.28,NW,323,0.0,0.0,95,0.00,,,0.00,WeatherCatV1.11B39,2013-01-30 13:53:00,
2013-01-30 05:58:00,30.7,29.4,30.28,NW,323,0.0,0.0,95,0.00,,,0.00,WeatherCatV1.11B39,2013-01-30 13:58:00,
2013-01-30 06:03:00,30.7,29.4,30.29,NW,323,0.0,0.0,95,0.00,,,0.00,WeatherCatV1.11B39,2013-01-30 14:03:00,
2013-01-30 06:08:00,30.6,29.3,30.29,NW,323,0.0,0.0,95,0.00,,,0.00,WeatherCatV1.11B39,2013-01-30 14:08:00,
2013-01-30 06:13:00,30.6,29.3,30.29,NW,323,0.0,0.0,95,0.00,,,0.00,WeatherCatV1.11B39,2013-01-30 14:13:00,
2013-01-30 06:18:00,30.5,29.2,30.29,NW,323,0.0,0.0,95,0.00,,,0.00,WeatherCatV1.11B39,2013-01-30 14:18:00,
2013-01-30 06:23:00,30.5,29.2,30.29,NW,323,0.0,0.0,95,0.00,,,0.00,WeatherCatV1.11B39,2013-01-30 14:23:00,
2013-01-30 06:28:00,30.3,29.0,30.30,NW,323,0.0,0.0,95,0.00,,,0.00,WeatherCatV1.11B39,2013-01-30 14:28:00,
2013-01-30 06:33:00,30.2,28.9,30.30,NW,323,0.0,0.0,95,0.00,,,0.00,WeatherCatV1.11B39,2013-01-30 14:33:00,
2013-01-30 06:38:00,30.2,28.9,30.30,NW,323,0.0,0.0,95,0.00,,,0.00,WeatherCatV1.11B39,2013-01-30 14:38:00,
2013-01-30 06:43:00,30.2,28.9,30.30,NW,323,0.0,0.0,95,0.00,,,0.00,WeatherCatV1.11B39,2013-01-30 14:43:00,
2013-01-30 06:48:00,30.2,28.9,30.30,NW,323,0.0,0.0,95,0.00,,,0.00,WeatherCatV1.11B39,2013-01-30 14:48:00,
2013-01-30 06:53:00,30.1,28.8,30.30,NW,323,0.0,0.0,95,0.00,,,0.00,WeatherCatV1.11B39,2013-01-30 14:53:00,
2013-01-30 06:58:00,30.0,28.7,30.30,NW,323,0.0,0.0,95,0.00,,,0.00,WeatherCatV1.11B39,2013-01-30 14:58:00,
2013-01-30 07:03:00,29.9,28.6,30.31,NW,323,0.0,0.0,95,0.00,,,0.00,WeatherCatV1.11B39,2013-01-30 15:03:00,
2013-01-30 07:08:00,29.9,28.6,30.31,NW,323,0.0,0.0,95,0.00,,,0.00,WeatherCatV1.11B39,2013-01-30 15:08:00,
2013-01-30 07:13:00,30.0,28.7,30.31,NW,323,0.0,0.0,95,0.00,,,0.00,WeatherCatV1.11B39,2013-01-30 15:13:00,
2013-01-30 07:18:00,30.1,28.8,30.32,NW,323,0.0,0.0,95,0.00,,,0.00,WeatherCatV1.11B39,2013-01-30 15:18:00,
2013-01-30 07:23:00,30.3,29.0,30.31,NW,323,0.0,0.0,95,0.00,,,0.00,WeatherCatV1.11B39,2013-01-30 15:23:00,
2013-01-30 07:28:00,30.4,29.4,30.32,NW,323,0.0,0.0,96,0.00,,,0.00,WeatherCatV1.11B39,2013-01-30 15:28:00,
2013-01-30 07:33:00,30.5,29.5,30.32,NW,323,0.0,0.0,96,0.00,,,0.00,WeatherCatV1.11B39,2013-01-30 15:33:00,
2013-01-30 07:38:00,30.5,29.5,30.32,NW,323,0.0,0.0,96,0.00,,,0.00,WeatherCatV1.11B39,2013-01-30 15:38:00,
2013-01-30 07:43:00,30.7,29.7,30.32,NW,323,0.0,0.0,96,0.00,,,0.00,WeatherCatV1.11B39,2013-01-30 15:43:00,
2013-01-30 07:48:00,31.3,30.3,30.32,NW,323,0.0,0.0,96,0.00,,,0.00,WeatherCatV1.11B39,2013-01-30 15:48:00,
2013-01-30 07:53:00,31.8,30.8,30.33,NW,323,0.0,0.0,96,0.00,,,0.00,WeatherCatV1.11B39,2013-01-30 15:53:00,
2013-01-30 07:58:00,32.3,31.5,30.33,NW,323,0.0,0.0,97,0.00,,,0.00,WeatherCatV1.11B39,2013-01-30 15:58:00,
2013-01-30 08:03:00,32.6,31.8,30.33,NW,323,0.0,0.0,97,0.00,,,0.00,WeatherCatV1.11B39,2013-01-30 16:03:00,
2013-01-30 08:08:00,33.2,32.4,30.33,NW,323,0.0,0.0,97,0.00,,,0.00,WeatherCatV1.11B39,2013-01-30 16:08:00,
2013-01-30 08:13:00,34.1,33.3,30.33,NW,323,0.0,0.0,97,0.00,,,0.00,WeatherCatV1.11B39,2013-01-30 16:13:00,
2013-01-30 08:18:00,35.0,34.2,30.34,NW,323,0.0,0.0,97,0.00,,,0.00,WeatherCatV1.11B39,2013-01-30 16:18:00,
2013-01-30 08:23:00,35.7,34.9,30.34,NW,323,0.0,0.0,97,0.00,,,0.00,WeatherCatV1.11B39,2013-01-30 16:23:00,
2013-01-30 08:28:00,36.6,35.8,30.34,NW,323,0.0,0.0,97,0.00,,,0.00,WeatherCatV1.11B39,2013-01-30 16:28:00,
2013-01-30 08:33:00,38.1,37.6,30.34,NW,323,0.0,2.0,98,0.00,,,0.00,WeatherCatV1.11B39,2013-01-30 16:33:00,
2013-01-30 08:38:00,39.1,38.6,30.34,NW,323,0.0,2.0,98,0.00,,,0.00,WeatherCatV1.11B39,2013-01-30 16:38:00,
2013-01-30 08:43:00,39.6,39.1,30.34,NW,323,0.0,2.0,98,0.00,,,0.00,WeatherCatV1.11B39,2013-01-30 16:43:00,
2013-01-30 08:48:00,40.2,39.7,30.34,NW,323,1.0,2.0,98,0.00,,,0.00,WeatherCatV1.11B39,2013-01-30 16:48:00,
2013-01-30 08:53:00,40.7,40.2,30.35,NW,323,0.0,1.0,98,0.00,,,0.00,WeatherCatV1.11B39,2013-01-30 16:53:00,
2013-01-30 08:58:00,41.3,40.8,30.34,NW,323,0.0,2.0,98,0.00,,,0.00,WeatherCatV1.11B39,2013-01-30 16:58:00,
2013-01-30 09:03:00,41.8,41.3,30.35,North,355,0.0,1.0,98,0.00,,,0.00,WeatherCatV1.11B39,2013-01-30 17:03:00,
2013-01-30 09:08:00,42.5,41.7,30.35,North,355,0.0,2.0,97,0.00,,,0.00,WeatherCatV1.11B39,2013-01-30 17:08:00,
2013-01-30 09:13:00,43.1,42.0,30.35,East,90,2.0,3.0,96,0.00,,,0.00,WeatherCatV1.11B39,2013-01-30 17:13:00,
2013-01-30 09:18:00,43.7,42.4,30.35,East,90,1.0,2.0,95,0.00,,,0.00,WeatherCatV1.11B39,2013-01-30 17:18:00,
2013-01-30 09:23:00,44.4,42.8,30.35,East,90,2.0,3.0,94,0.00,,,0.00,WeatherCatV1.11B39,2013-01-30 17:23:00,
2013-01-30 09:28:00,45.0,42.5,30.35,East,91,0.0,3.0,91,0.00,,,0.00,WeatherCatV1.11B39,2013-01-30 17:28:00,
2013-01-30 09:33:00,45.6,42.8,30.35,East,91,0.0,1.0,90,0.00,,,0.00,WeatherCatV1.11B39,2013-01-30 17:33:00,
2013-01-30 09:38:00,46.3,42.9,30.35,East,91,0.0,0.0,88,0.00,,,0.00,WeatherCatV1.11B39,2013-01-30 17:38:00,
2013-01-30 09:43:00,47.0,43.0,30.35,East,91,0.0,3.0,86,0.00,,,0.00,WeatherCatV1.11B39,2013-01-30 17:43:00,
2013-01-30 09:48:00,47.7,43.1,30.35,East,91,0.0,0.0,84,0.00,,,0.00,WeatherCatV1.11B39,2013-01-30 17:48:00,
2013-01-30 09:53:00,48.4,43.2,30.35,East,91,0.0,2.0,82,0.00,,,0.00,WeatherCatV1.11B39,2013-01-30 17:53:00,
2013-01-30 09:58:00,49.1,43.5,30.35,East,91,2.0,3.0,81,0.00,,,0.00,WeatherCatV1.11B39,2013-01-30 17:58:00,
2013-01-30 10:03:00,49.6,43.7,30.36,East,91,0.0,1.0,80,0.00,,,0.00,WeatherCatV1.11B39,2013-01-30 18:03:00,
2013-01-30 10:08:00,50.1,43.5,30.36,East,91,0.0,3.0,78,0.00,,,0.00,WeatherCatV1.11B39,2013-01-30 18:08:00,
2013-01-30 10:13:00,50.6,43.3,30.35,East,92,0.0,2.0,76,0.00,,,0.00,WeatherCatV1.11B39,2013-01-30 18:13:00,
2013-01-30 10:18:00,51.1,43.5,30.36,East,92,0.0,3.0,75,0.00,,,0.00,WeatherCatV1.11B39,2013-01-30 18:18:00,
2013-01-30 10:23:00,51.6,43.9,30.36,ESE,107,1.0,4.0,75,0.00,,,0.00,WeatherCatV1.11B39,2013-01-30 18:23:00,
2013-01-30 10:28:00,52.0,43.6,30.36,East,96,0.0,0.0,73,0.00,,,0.00,WeatherCatV1.11B39,2013-01-30 18:28:00,
2013-01-30 10:33:00,52.6,44.2,30.36,ESE,104,0.0,3.0,73,0.00,,,0.00,WeatherCatV1.11B39,2013-01-30 18:33:00,
2013-01-30 10:38:00,53.2,44.0,30.36,ESE,104,2.0,2.0,71,0.00,,,0.00,WeatherCatV1.11B39,2013-01-30 18:38:00,
2013-01-30 10:43:00,53.5,44.0,30.36,East,101,0.0,4.0,70,0.00,,,0.00,WeatherCatV1.11B39,2013-01-30 18:43:00,
2013-01-30 10:48:00,53.8,43.9,30.35,ESE,105,1.0,3.0,69,0.00,,,0.00,WeatherCatV1.11B39,2013-01-30 18:48:00,
2013-01-30 10:53:00,54.1,43.8,30.35,East,92,0.0,4.0,68,0.00,,,0.00,WeatherCatV1.11B39,2013-01-30 18:53:00,
2013-01-30 10:58:00,54.2,43.5,30.35,East,97,0.0,4.0,67,0.00,,,0.00,WeatherCatV1.11B39,2013-01-30 18:58:00,
2013-01-30 11:03:00,54.3,43.2,30.35,East,96,2.0,2.0,66,0.00,,,0.00,WeatherCatV1.11B39,2013-01-30 19:03:00,
2013-01-30 11:08:00,55.1,43.9,30.35,East,97,0.0,2.0,66,0.00,,,0.00,WeatherCatV1.11B39,2013-01-30 19:08:00,
2013-01-30 11:13:00,56.0,44.4,30.35,South,190,3.0,3.0,65,0.00,,,0.00,WeatherCatV1.11B39,2013-01-30 19:13:00,
2013-01-30 11:18:00,56.4,44.0,30.34,East,98,0.0,2.0,63,0.00,,,0.00,WeatherCatV1.11B39,2013-01-30 19:18:00,
2013-01-30 11:23:00,56.6,44.2,30.34,ESE,115,0.0,2.0,63,0.00,,,0.00,WeatherCatV1.11B39,2013-01-30 19:23:00,
2013-01-30 11:28:00,57.0,44.1,30.34,ESE,113,0.0,3.0,62,0.00,,,0.00,WeatherCatV1.11B39,2013-01-30 19:28:00,
2013-01-30 11:33:00,56.9,44.0,30.34,ESE,105,3.0,4.0,62,0.00,,,0.00,WeatherCatV1.11B39,2013-01-30 19:33:00,
2013-01-30 11:38:00,56.9,44.0,30.34,ESE,106,0.0,1.0,62,0.00,,,0.00,WeatherCatV1.11B39,2013-01-30 19:38:00,
2013-01-30 11:43:00,57.2,43.9,30.34,South,191,0.0,3.0,61,0.00,,,0.00,WeatherCatV1.11B39,2013-01-30 19:43:00,
2013-01-30 11:48:00,57.5,44.2,30.33,SSE,166,0.0,1.0,61,0.00,,,0.00,WeatherCatV1.11B39,2013-01-30 19:48:00,
2013-01-30 11:53:00,58.1,44.7,30.33,SE,142,1.0,3.0,61,0.00,,,0.00,WeatherCatV1.11B39,2013-01-30 19:53:00,
2013-01-30 11:58:00,58.5,44.7,30.33,SE,142,0.0,1.0,60,0.00,,,0.00,WeatherCatV1.11B39,2013-01-30 19:58:00,
2013-01-30 12:03:00,58.5,44.2,30.33,East,86,2.0,3.0,59,0.00,,,0.00,WeatherCatV1.11B39,2013-01-30 20:03:00,
2013-01-30 12:08:00,58.3,44.0,30.32,ESE,110,0.0,2.0,59,0.00,,,0.00,WeatherCatV1.11B39,2013-01-30 20:08:00,
2013-01-30 12:13:00,58.4,44.1,30.33,ESE,113,0.0,0.0,59,0.00,,,0.00,WeatherCatV1.11B39,2013-01-30 20:13:00,
2013-01-30 12:18:00,58.7,44.4,30.32,ESE,113,1.0,3.0,59,0.00,,,0.00,WeatherCatV1.11B39,2013-01-30 20:18:00,
2013-01-30 12:23:00,58.9,44.1,30.32,East,89,0.0,1.0,58,0.00,,,0.00,WeatherCatV1.11B39,2013-01-30 20:23:00,
2013-01-30 12:28:00,58.8,43.6,30.31,NE,49,2.0,3.0,57,0.00,,,0.00,WeatherCatV1.11B39,2013-01-30 20:28:00,
2013-01-30 12:33:00,58.5,43.8,30.31,East,82,2.0,2.0,58,0.00,,,0.00,WeatherCatV1.11B39,2013-01-30 20:33:00,
2013-01-30 12:38:00,58.6,43.4,30.31,East,99,0.0,1.0,57,0.00,,,0.00,WeatherCatV1.11B39,2013-01-30 20:38:00,
2013-01-30 12:43:00,58.6,43.4,30.31,ENE,76,1.0,4.0,57,0.00,,,0.00,WeatherCatV1.11B39,2013-01-30 20:43:00,
2013-01-30 12:48:00,58.4,43.7,30.30,ENE,76,0.0,3.0,58,0.00,,,0.00,WeatherCatV1.11B39,2013-01-30 20:48:00,
2013-01-30 12:53:00,58.8,44.1,30.30,ESE,105,4.0,4.0,58,0.00,,,0.00,WeatherCatV1.11B39,2013-01-30 20:53:00,
2013-01-30 12:58:00,58.9,43.7,30.30,ESE,106,2.0,3.0,57,0.00,,,0.00,WeatherCatV1.11B39,2013-01-30 20:58:00,
2013-01-30 13:03:00,59.0,43.8,30.30,NE,44,0.0,4.0,57,0.00,,,0.00,WeatherCatV1.11B39,2013-01-30 21:03:00,
2013-01-30 13:08:00,59.4,43.7,30.29,ENE,74,0.0,1.0,56,0.00,,,0.00,WeatherCatV1.11B39,2013-01-30 21:08:00,
2013-01-30 13:13:00,59.8,43.6,30.29,ESE,118,1.0,2.0,55,0.00,,,0.00,WeatherCatV1.11B39,2013-01-30 21:13:00,
2013-01-30 13:18:00,60.1,43.4,30.29,SE,132,0.0,2.0,54,0.00,,,0.00,WeatherCatV1.11B39,2013-01-30 21:18:00,
2013-01-30 13:23:00,60.4,42.7,30.29,ESE,121,0.0,3.0,52,0.00,,,0.00,WeatherCatV1.11B39,2013-01-30 21:23:00,
2013-01-30 13:28:00,60.4,43.2,30.28,SE,130,3.0,5.0,53,0.00,,,0.00,WeatherCatV1.11B39,2013-01-30 21:28:00,
2013-01-30 13:33:00,60.7,43.0,30.28,SE,144,1.0,1.0,52,0.00,,,0.00,WeatherCatV1.11B39,2013-01-30 21:33:00,
2013-01-30 13:38:00,61.2,43.9,30.28,SE,144,0.0,3.0,53,0.00,,,0.00,WeatherCatV1.11B39,2013-01-30 21:38:00,
2013-01-30 13:43:00,61.8,45.0,30.28,SE,143,0.0,4.0,54,0.00,,,0.00,WeatherCatV1.11B39,2013-01-30 21:43:00,
2013-01-30 13:48:00,61.9,43.6,30.28,SSE,165,0.0,0.0,51,0.00,,,0.00,WeatherCatV1.11B39,2013-01-30 21:48:00,
2013-01-30 13:53:00,61.4,43.6,30.28,ENE,61,0.0,4.0,52,0.00,,,0.00,WeatherCatV1.11B39,2013-01-30 21:53:00,
2013-01-30 13:58:00,60.8,43.1,30.28,ESE,107,3.0,4.0,52,0.00,,,0.00,WeatherCatV1.11B39,2013-01-30 21:58:00,
2013-01-30 14:03:00,60.5,43.3,30.28,ESE,107,2.0,2.0,53,0.00,,,0.00,WeatherCatV1.11B39,2013-01-30 22:03:00,
2013-01-30 14:08:00,60.8,43.6,30.27,ESE,107,0.0,2.0,53,0.00,,,0.00,WeatherCatV1.11B39,2013-01-30 22:08:00,
2013-01-30 14:13:00,60.7,44.0,30.27,ESE,107,0.0,2.0,54,0.00,,,0.00,WeatherCatV1.11B39,2013-01-30 22:13:00,
2013-01-30 14:18:00,61.2,43.9,30.28,ESE,108,0.0,3.0,53,0.00,,,0.00,WeatherCatV1.11B39,2013-01-30 22:18:00,
2013-01-30 14:23:00,61.1,43.8,30.27,ESE,107,1.0,3.0,53,0.00,,,0.00,WeatherCatV1.11B39,2013-01-30 22:23:00,
2013-01-30 14:28:00,60.7,43.0,30.27,ESE,113,0.0,3.0,52,0.00,,,0.00,WeatherCatV1.11B39,2013-01-30 22:28:00,
2013-01-30 14:33:00,60.8,43.6,30.27,South,182,0.0,1.0,53,0.00,,,0.00,WeatherCatV1.11B39,2013-01-30 22:33:00,
2013-01-30 14:38:00,61.3,43.5,30.27,ESE,109,2.0,3.0,52,0.00,,,0.00,WeatherCatV1.11B39,2013-01-30 22:38:00,
2013-01-30 14:43:00,61.2,43.4,30.27,ESE,110,0.0,2.0,52,0.00,,,0.00,WeatherCatV1.11B39,2013-01-30 22:43:00,
2013-01-30 14:48:00,61.7,43.9,30.27,SSE,150,0.0,1.0,52,0.00,,,0.00,WeatherCatV1.11B39,2013-01-30 22:48:00,
2013-01-30 14:53:00,61.7,43.9,30.27,SSE,150,1.0,2.0,52,0.00,,,0.00,WeatherCatV1.11B39,2013-01-30 22:53:00,
2013-01-30 14:58:00,61.9,44.1,30.27,South,182,4.0,5.0,52,0.00,,,0.00,WeatherCatV1.11B39,2013-01-30 22:58:00,
2013-01-30 15:03:00,62.0,44.2,30.27,ESE,109,3.0,3.0,52,0.00,,,0.00,WeatherCatV1.11B39,2013-01-30 23:03:00,
2013-01-30 15:08:00,62.1,43.8,30.27,SE,126,0.0,2.0,51,0.00,,,0.00,WeatherCatV1.11B39,2013-01-30 23:08:00,
2013-01-30 15:13:00,61.9,44.1,30.27,SE,128,0.0,2.0,52,0.00,,,0.00,WeatherCatV1.11B39,2013-01-30 23:13:00,
2013-01-30 15:18:00,61.8,43.5,30.27,SE,128,0.0,2.0,51,0.00,,,0.00,WeatherCatV1.11B39,2013-01-30 23:18:00,
2013-01-30 15:23:00,61.6,43.3,30.27,SE,128,0.0,0.0,51,0.00,,,0.00,WeatherCatV1.11B39,2013-01-30 23:23:00,
2013-01-30 15:28:00,61.6,43.3,30.27,SE,128,0.0,0.0,51,0.00,,,0.00,WeatherCatV1.11B39,2013-01-30 23:28:00,
2013-01-30 15:33:00,61.7,43.4,30.26,South,180,0.0,1.0,51,0.00,,,0.00,WeatherCatV1.11B39,2013-01-30 23:33:00,
2013-01-30 15:39:00,61.8,43.5,30.26,South,180,1.0,1.0,51,0.00,,,0.00,WeatherCatV1.11B39,2013-01-30 23:39:00,
2013-01-30 15:44:00,61.7,43.4,30.26,South,180,0.0,0.0,51,0.00,,,0.00,WeatherCatV1.11B39,2013-01-30 23:44:00,
2013-01-30 15:49:00,61.8,43.5,30.26,South,180,0.0,2.0,51,0.00,,,0.00,WeatherCatV1.11B39,2013-01-30 23:49:00,
2013-01-30 15:54:00,61.8,43.5,30.26,South,180,0.0,0.0,51,0.00,,,0.00,WeatherCatV1.11B39,2013-01-30 23:54:00,
2013-01-30 15:59:00,61.8,43.5,30.26,South,180,0.0,0.0,51,0.00,,,0.00,WeatherCatV1.11B39,2013-01-30 23:59:00,
2013-01-30 16:04:00,61.8,43.5,30.26,South,180,0.0,0.0,51,0.00,,,0.00,WeatherCatV1.11B39,2013-01-31 00:04:00,
2013-01-30 16:09:00,61.4,43.1,30.26,South,180,0.0,1.0,51,0.00,,,0.00,WeatherCatV1.11B39,2013-01-31 00:09:00,
2013-01-30 16:14:00,61.1,43.3,30.26,South,180,0.0,1.0,52,0.00,,,0.00,WeatherCatV1.11B39,2013-01-31 00:14:00,
2013-01-30 16:19:00,60.8,43.1,30.26,South,180,0.0,0.0,52,0.00,,,0.00,WeatherCatV1.11B39,2013-01-31 00:19:00,
2013-01-30 16:24:00,60.8,43.1,30.26,South,180,0.0,0.0,52,0.00,,,0.00,WeatherCatV1.11B39,2013-01-31 00:24:00,
2013-01-30 16:29:00,60.9,43.2,30.26,South,180,0.0,0.0,52,0.00,,,0.00,WeatherCatV1.11B39,2013-01-31 00:29:00,
2013-01-30 16:34:00,60.7,43.0,30.26,South,180,0.0,0.0,52,0.00,,,0.00,WeatherCatV1.11B39,2013-01-31 00:34:00,
2013-01-30 16:39:00,60.5,43.3,30.26,South,180,0.0,1.0,53,0.00,,,0.00,WeatherCatV1.11B39,2013-01-31 00:39:00,
2013-01-30 16:44:00,60.3,43.1,30.26,South,180,0.0,0.0,53,0.00,,,0.00,WeatherCatV1.11B39,2013-01-31 00:44:00,
2013-01-30 16:49:00,60.0,43.3,30.26,South,180,0.0,0.0,54,0.00,,,0.00,WeatherCatV1.11B39,2013-01-31 00:49:00,
2013-01-30 16:54:00,59.7,43.5,30.26,South,180,0.0,0.0,55,0.00,,,0.00,WeatherCatV1.11B39,2013-01-31 00:54:00,
2013-01-30 16:59:00,59.3,43.1,30.26,South,180,0.0,1.0,55,0.00,,,0.00,WeatherCatV1.11B39,2013-01-31 00:59:00,
2013-01-30 17:04:00,58.9,43.2,30.26,South,180,0.0,0.0,56,0.00,,,0.00,WeatherCatV1.11B39,2013-01-31 01:04:00,
2013-01-30 17:09:00,58.4,42.8,30.25,South,180,0.0,0.0,56,0.00,,,0.00,WeatherCatV1.11B39,2013-01-31 01:09:00,
2013-01-30 17:14:00,58.1,42.9,30.25,South,180,0.0,0.0,57,0.00,,,0.00,WeatherCatV1.11B39,2013-01-31 01:14:00,
2013-01-30 17:19:00,57.8,43.1,30.25,South,180,0.0,0.0,58,0.00,,,0.00,WeatherCatV1.11B39,2013-01-31 01:19:00,
2013-01-30 17:24:00,57.5,43.3,30.25,South,180,0.0,0.0,59,0.00,,,0.00,WeatherCatV1.11B39,2013-01-31 01:24:00,
2013-01-30 17:29:00,57.1,42.9,30.25,South,180,0.0,0.0,59,0.00,,,0.00,WeatherCatV1.11B39,2013-01-31 01:29:00,
2013-01-30 17:34:00,56.5,42.8,30.25,South,180,0.0,0.0,60,0.00,,,0.00,WeatherCatV1.11B39,2013-01-31 01:34:00,
2013-01-30 17:39:00,56.1,42.0,30.25,South,180,0.0,0.0,59,0.00,,,0.00,WeatherCatV1.11B39,2013-01-31 01:39:00,
2013-01-30 17:44:00,55.7,42.0,30.25,South,180,0.0,0.0,60,0.00,,,0.00,WeatherCatV1.11B39,2013-01-31 01:44:00,
2013-01-30 17:49:00,55.3,42.1,30.25,South,180,0.0,0.0,61,0.00,,,0.00,WeatherCatV1.11B39,2013-01-31 01:49:00,
2013-01-30 17:54:00,54.8,41.6,30.25,South,180,0.0,0.0,61,0.00,,,0.00,WeatherCatV1.11B39,2013-01-31 01:54:00,
2013-01-30 17:59:00,54.0,41.7,30.25,South,180,0.0,0.0,63,0.00,,,0.00,WeatherCatV1.11B39,2013-01-31 01:59:00,
2013-01-30 18:04:00,53.2,41.3,30.26,South,180,0.0,0.0,64,0.00,,,0.00,WeatherCatV1.11B39,2013-01-31 02:04:00,
2013-01-30 18:09:00,52.8,41.4,30.26,South,180,0.0,0.0,65,0.00,,,0.00,WeatherCatV1.11B39,2013-01-31 02:09:00,
2013-01-30 18:14:00,52.3,41.3,30.26,South,180,0.0,0.0,66,0.00,,,0.00,WeatherCatV1.11B39,2013-01-31 02:14:00,
2013-01-30 18:19:00,51.9,41.3,30.26,South,180,0.0,0.0,67,0.00,,,0.00,WeatherCatV1.11B39,2013-01-31 02:19:00,
2013-01-30 18:24:00,51.6,40.6,30.26,South,180,0.0,0.0,66,0.00,,,0.00,WeatherCatV1.11B39,2013-01-31 02:24:00,
2013-01-30 18:29:00,51.2,41.0,30.26,South,180,0.0,0.0,68,0.00,,,0.00,WeatherCatV1.11B39,2013-01-31 02:29:00,
2013-01-30 18:34:00,50.8,41.0,30.26,South,180,0.0,0.0,69,0.00,,,0.00,WeatherCatV1.11B39,2013-01-31 02:34:00,
2013-01-30 18:39:00,50.5,41.1,30.26,South,180,0.0,0.0,70,0.00,,,0.00,WeatherCatV1.11B39,2013-01-31 02:39:00,
2013-01-30 18:44:00,50.2,41.2,30.26,South,180,0.0,0.0,71,0.00,,,0.00,WeatherCatV1.11B39,2013-01-31 02:44:00,
2013-01-30 18:49:00,49.9,41.2,30.26,South,180,0.0,0.0,72,0.00,,,0.00,WeatherCatV1.11B39,2013-01-31 02:49:00,
2013-01-30 18:54:00,49.7,40.7,30.26,South,180,0.0,0.0,71,0.00,,,0.00,WeatherCatV1.11B39,2013-01-31 02:54:00,
2013-01-30 18:59:00,49.4,40.8,30.26,South,180,0.0,0.0,72,0.00,,,0.00,WeatherCatV1.11B39,2013-01-31 02:59:00,
2013-01-30 19:04:00,49.1,40.8,30.26,South,180,0.0,0.0,73,0.00,,,0.00,WeatherCatV1.11B39,2013-01-31 03:04:00,
2013-01-30 19:09:00,48.8,40.2,30.26,South,180,0.0,0.0,72,0.00,,,0.00,WeatherCatV1.11B39,2013-01-31 03:09:00,
2013-01-30 19:14:00,48.2,39.6,30.26,South,180,0.0,0.0,72,0.00,,,0.00,WeatherCatV1.11B39,2013-01-31 03:14:00,
2013-01-30 19:19:00,47.8,39.9,30.26,South,180,0.0,0.0,74,0.00,,,0.00,WeatherCatV1.11B39,2013-01-31 03:19:00,
2013-01-30 19:24:00,47.4,40.2,30.26,South,180,0.0,0.0,76,0.00,,,0.00,WeatherCatV1.11B39,2013-01-31 03:24:00,
2013-01-30 19:29:00,47.1,40.3,30.26,South,180,0.0,0.0,77,0.00,,,0.00,WeatherCatV1.11B39,2013-01-31 03:29:00,
2013-01-30 19:34:00,46.9,40.4,30.26,South,180,0.0,0.0,78,0.00,,,0.00,WeatherCatV1.11B39,2013-01-31 03:34:00,
2013-01-30 19:39:00,46.7,40.2,30.26,South,180,0.0,0.0,78,0.00,,,0.00,WeatherCatV1.11B39,2013-01-31 03:39:00,
2013-01-30 19:44:00,46.4,39.9,30.26,South,180,0.0,0.0,78,0.00,,,0.00,WeatherCatV1.11B39,2013-01-31 03:44:00,
2013-01-30 19:49:00,46.2,40.1,30.26,South,180,0.0,0.0,79,0.00,,,0.00,WeatherCatV1.11B39,2013-01-31 03:49:00,
2013-01-30 19:54:00,46.0,39.9,30.26,South,180,0.0,0.0,79,0.00,,,0.00,WeatherCatV1.11B39,2013-01-31 03:54:00,
2013-01-30 19:59:00,45.8,39.7,30.26,South,180,0.0,0.0,79,0.00,,,0.00,WeatherCatV1.11B39,2013-01-31 03:59:00,
2013-01-30 20:04:00,45.5,39.7,30.26,South,180,0.0,0.0,80,0.00,,,0.00,WeatherCatV1.11B39,2013-01-31 04:04:00,
2013-01-30 20:09:00,45.2,39.1,30.26,South,180,0.0,0.0,79,0.00,,,0.00,WeatherCatV1.11B39,2013-01-31 04:09:00,
2013-01-30 20:14:00,44.9,39.1,30.26,South,180,0.0,0.0,80,0.00,,,0.00,WeatherCatV1.11B39,2013-01-31 04:14:00,
2013-01-30 20:19:00,44.6,38.8,30.26,South,180,0.0,0.0,80,0.00,,,0.00,WeatherCatV1.11B39,2013-01-31 04:19:00,
2013-01-30 20:24:00,44.3,38.5,30.26,South,180,0.0,0.0,80,0.00,,,0.00,WeatherCatV1.11B39,2013-01-31 04:24:00,
2013-01-30 20:29:00,44.0,38.5,30.26,South,180,0.0,0.0,81,0.00,,,0.00,WeatherCatV1.11B39,2013-01-31 04:29:00,
2013-01-30 20:34:00,43.8,38.7,30.26,South,180,0.0,0.0,82,0.00,,,0.00,WeatherCatV1.11B39,2013-01-31 04:34:00,
2013-01-30 20:39:00,43.7,38.9,30.26,South,180,0.0,0.0,83,0.00,,,0.00,WeatherCatV1.11B39,2013-01-31 04:39:00,
2013-01-30 20:44:00,43.6,39.1,30.26,South,180,0.0,0.0,84,0.00,,,0.00,WeatherCatV1.11B39,2013-01-31 04:44:00,
2013-01-30 20:49:00,43.1,38.3,30.26,South,180,0.0,0.0,83,0.00,,,0.00,WeatherCatV1.11B39,2013-01-31 04:49:00,
2013-01-30 20:54:00,42.9,38.1,30.26,South,180,0.0,0.0,83,0.00,,,0.00,WeatherCatV1.11B39,2013-01-31 04:54:00,
2013-01-30 20:59:00,42.6,38.1,30.26,South,180,0.0,0.0,84,0.00,,,0.00,WeatherCatV1.11B39,2013-01-31 04:59:00,
2013-01-30 21:00:00,42.6,38.1,30.26,South,180,0.0,0.0,84,0.00,,,0.00,WeatherCatV1.11B39,2013-01-31 05:00:00,
2013-01-30 21:05:00,42.3,38.1,30.26,South,180,0.0,0.0,85,0.00,,,0.00,WeatherCatV1.11B39,2013-01-31 05:05:00,
2013-01-30 21:10:00,42.2,38.3,30.26,South,180,0.0,0.0,86,0.00,,,0.00,WeatherCatV1.11B39,2013-01-31 05:10:00,
2013-01-30 21:15:00,42.1,38.5,30.26,South,180,0.0,0.0,87,0.00,,,0.00,WeatherCatV1.11B39,2013-01-31 05:15:00,
2013-01-30 21:20:00,41.9,38.3,30.26,South,180,0.0,0.0,87,0.00,,,0.00,WeatherCatV1.11B39,2013-01-31 05:20:00,
2013-01-30 21:25:00,41.8,38.2,30.26,South,180,0.0,0.0,87,0.00,,,0.00,WeatherCatV1.11B39,2013-01-31 05:25:00,
2013-01-30 21:30:00,41.7,38.4,30.26,South,180,0.0,0.0,88,0.00,,,0.00,WeatherCatV1.11B39,2013-01-31 05:30:00,
2013-01-30 21:35:00,41.6,38.3,30.26,South,180,0.0,0.0,88,0.00,,,0.00,WeatherCatV1.11B39,2013-01-31 05:35:00,
2013-01-30 21:40:00,41.5,38.2,30.26,South,180,0.0,0.0,88,0.00,,,0.00,WeatherCatV1.11B39,2013-01-31 05:40:00,
2013-01-30 21:45:00,41.3,38.0,30.26,South,180,0.0,0.0,88,0.00,,,0.00,WeatherCatV1.11B39,2013-01-31 05:45:00,
2013-01-30 21:50:00,41.1,37.8,30.26,South,180,0.0,0.0,88,0.00,,,0.00,WeatherCatV1.11B39,2013-01-31 05:50:00,
2013-01-30 21:55:00,41.0,38.0,30.26,South,180,0.0,0.0,89,0.00,,,0.00,WeatherCatV1.11B39,2013-01-31 05:55:00,
2013-01-30 22:00:00,41.0,38.3,30.27,South,180,0.0,0.0,90,0.00,,,0.00,WeatherCatV1.11B39,2013-01-31 06:00:00,
2013-01-30 22:05:00,41.2,38.8,30.27,South,180,0.0,0.0,91,0.00,,,0.00,WeatherCatV1.11B39,2013-01-31 06:05:00,
2013-01-30 22:10:00,41.3,38.9,30.27,South,180,0.0,0.0,91,0.00,,,0.00,WeatherCatV1.11B39,2013-01-31 06:10:00,
2013-01-30 22:15:00,41.3,38.9,30.27,South,180,0.0,0.0,91,0.00,,,0.00,WeatherCatV1.11B39,2013-01-31 06:15:00,
2013-01-30 22:20:00,41.3,38.9,30.27,South,180,0.0,0.0,91,0.00,,,0.00,WeatherCatV1.11B39,2013-01-31 06:20:00,
2013-01-30 22:25:00,41.2,38.8,30.27,South,180,0.0,0.0,91,0.00,,,0.00,WeatherCatV1.11B39,2013-01-31 06:25:00,
2013-01-30 22:30:00,41.1,38.7,30.27,South,180,0.0,0.0,91,0.00,,,0.00,WeatherCatV1.11B39,2013-01-31 06:30:00,
2013-01-30 22:35:00,40.8,38.1,30.27,South,180,0.0,0.0,90,0.00,,,0.00,WeatherCatV1.11B39,2013-01-31 06:35:00,
2013-01-30 22:40:00,40.7,38.3,30.27,South,180,0.0,0.0,91,0.00,,,0.00,WeatherCatV1.11B39,2013-01-31 06:40:00,
2013-01-30 22:45:00,40.6,38.2,30.27,South,180,0.0,0.0,91,0.00,,,0.00,WeatherCatV1.11B39,2013-01-31 06:45:00,
2013-01-30 22:50:00,40.4,38.0,30.27,South,180,0.0,0.0,91,0.00,,,0.00,WeatherCatV1.11B39,2013-01-31 06:50:00,
2013-01-30 22:55:00,40.2,37.5,30.27,South,180,0.0,0.0,90,0.00,,,0.00,WeatherCatV1.11B39,2013-01-31 06:55:00,
2013-01-30 23:00:00,40.0,37.6,30.27,South,180,0.0,0.0,91,0.00,,,0.00,WeatherCatV1.11B39,2013-01-31 07:00:00,
2013-01-30 23:02:00,40.0,37.6,30.27,South,180,0.0,0.0,91,0.00,,,0.00,WeatherCatV1.11B39,2013-01-31 07:02:00,
2013-01-30 23:07:00,39.9,37.5,30.27,South,180,0.0,0.0,91,0.00,,,0.00,WeatherCatV1.11B39,2013-01-31 07:07:00,
2013-01-30 23:12:00,39.8,37.7,30.28,South,180,0.0,0.0,92,0.00,,,0.00,WeatherCatV1.11B39,2013-01-31 07:12:00,
2013-01-30 23:17:00,39.8,37.4,30.28,South,180,0.0,0.0,91,0.00,,,0.00,WeatherCatV1.11B39,2013-01-31 07:17:00,
2013-01-30 23:22:00,39.7,37.6,30.27,South,180,0.0,0.0,92,0.00,,,0.00,WeatherCatV1.11B39,2013-01-31 07:22:00,
2013-01-30 23:27:00,39.7,37.6,30.28,South,180,0.0,0.0,92,0.00,,,0.00,WeatherCatV1.11B39,2013-01-31 07:27:00,
2013-01-30 23:32:00,39.6,37.5,30.28,South,180,0.0,0.0,92,0.00,,,0.00,WeatherCatV1.11B39,2013-01-31 07:32:00,
2013-01-30 23:37:00,39.5,37.4,30.28,South,180,0.0,0.0,92,0.00,,,0.00,WeatherCatV1.11B39,2013-01-31 07:37:00,
2013-01-30 23:42:00,39.4,37.3,30.28,South,180,0.0,0.0,92,0.00,,,0.00,WeatherCatV1.11B39,2013-01-31 07:42:00,
2013-01-30 23:47:00,39.2,37.1,30.28,South,180,0.0,0.0,92,0.00,,,0.00,WeatherCatV1.11B39,2013-01-31 07:47:00,
2013-01-30 23:52:00,39.0,36.9,30.27,South,180,0.0,0.0,92,0.00,,,0.00,WeatherCatV1.11B39,2013-01-31 07:52:00,
2013-01-30 23:57:00,38.8,36.7,30.27,South,180,0.0,0.0,92,0.00,,,0.00,WeatherCatV1.11B39,2013-01-31 07:57:00,